sensor_id;sensor_type;location;lat;lon;timestamp;pressure;altitude;pressure_sealevel;temperature;humidity
58239;BME280;44037;55.638;37.356;2024-01-15T00:01:42;96902.84;;;-9.53;79.14
58239;BME280;44037;55.638;37.356;2024-01-15T00:04:09;96906.22;;;-9.41;79.65
58239;BME280;44037;55.638;37.356;2024-01-15T00:06:38;96905.53;;;-9.43;78.72
58239;BME280;44037;55.638;37.356;2024-01-15T00:09:05;96893.69;;;-9.36;79.03
58239;BME280;44037;55.638;37.356;2024-01-15T00:11:33;96902.19;;;-9.34;79.29
58239;BME280;44037;55.638;37.356;2024-01-15T00:13:59;96887.50;;;-9.23;79.64
58239;BME280;44037;55.638;37.356;2024-01-15T00:16:26;96894.59;;;-9.25;78.75
58239;BME280;44037;55.638;37.356;2024-01-15T00:18:54;96885.84;;;-9.24;79.26
58239;BME280;44037;55.638;37.356;2024-01-15T00:21:21;96890.31;;;-9.15;78.71
58239;BME280;44037;55.638;37.356;2024-01-15T00:23:50;96884.66;;;-9.20;79.26
58239;BME280;44037;55.638;37.356;2024-01-15T00:26:18;96890.19;;;-9.46;78.64
58239;BME280;44037;55.638;37.356;2024-01-15T00:28:45;96882.50;;;-9.15;79.59
58239;BME280;44037;55.638;37.356;2024-01-15T00:31:12;96885.06;;;-9.04;79.75
58239;BME280;44037;55.638;37.356;2024-01-15T00:33:42;96882.00;;;-9.09;79.20
58239;BME280;44037;55.638;37.356;2024-01-15T00:36:10;96876.72;;;-9.19;79.29
58239;BME280;44037;55.638;37.356;2024-01-15T00:38:37;96872.16;;;-9.05;79.47
58239;BME280;44037;55.638;37.356;2024-01-15T00:41:06;96873.00;;;-9.05;79.07
58239;BME280;44037;55.638;37.356;2024-01-15T00:43:33;96863.50;;;-8.95;79.96
58239;BME280;44037;55.638;37.356;2024-01-15T00:46:02;96870.59;;;-8.97;78.94
58239;BME280;44037;55.638;37.356;2024-01-15T00:48:29;96867.03;;;-8.96;79.19
58239;BME280;44037;55.638;37.356;2024-01-15T00:50:57;96865.66;;;-9.00;78.66
58239;BME280;44037;55.638;37.356;2024-01-15T00:53:25;96861.25;;;-8.99;79.12
58239;BME280;44037;55.638;37.356;2024-01-15T00:55:52;96860.44;;;-9.00;78.75
58239;BME280;44037;55.638;37.356;2024-01-15T00:58:21;96858.97;;;-8.92;78.90
58239;BME280;44037;55.638;37.356;2024-01-15T01:00:49;96856.31;;;-8.81;79.30
58239;BME280;44037;55.638;37.356;2024-01-15T01:03:16;96858.22;;;-8.83;79.04
58239;BME280;44037;55.638;37.356;2024-01-15T01:05:44;96853.78;;;-8.92;78.32
58239;BME280;44037;55.638;37.356;2024-01-15T01:08:11;96855.81;;;-8.75;79.12
58239;BME280;44037;55.638;37.356;2024-01-15T01:10:39;96852.25;;;-8.74;79.17
58239;BME280;44037;55.638;37.356;2024-01-15T01:13:08;96842.59;;;-8.62;79.64
58239;BME280;44037;55.638;37.356;2024-01-15T01:15:37;96844.03;;;-8.69;78.60
58239;BME280;44037;55.638;37.356;2024-01-15T01:18:04;96833.47;;;-8.78;78.77
58239;BME280;44037;55.638;37.356;2024-01-15T01:20:32;96828.34;;;-8.68;79.81
58239;BME280;44037;55.638;37.356;2024-01-15T01:22:59;96829.97;;;-8.67;78.92
58239;BME280;44037;55.638;37.356;2024-01-15T01:25:27;96830.59;;;-8.53;79.37
58239;BME280;44037;55.638;37.356;2024-01-15T01:27:54;96827.69;;;-8.60;79.13
58239;BME280;44037;55.638;37.356;2024-01-15T01:30:22;96832.75;;;-8.58;78.83
58239;BME280;44037;55.638;37.356;2024-01-15T01:32:50;96826.41;;;-8.66;79.31
58239;BME280;44037;55.638;37.356;2024-01-15T01:35:18;96820.84;;;-8.51;79.64
58239;BME280;44037;55.638;37.356;2024-01-15T01:37:45;96830.91;;;-8.37;79.59
58239;BME280;44037;55.638;37.356;2024-01-15T01:40:12;96826.13;;;-8.41;79.27
58239;BME280;44037;55.638;37.356;2024-01-15T01:42:40;96825.44;;;-8.34;78.98
58239;BME280;44037;55.638;37.356;2024-01-15T01:45:09;96812.03;;;-8.29;78.79
58239;BME280;44037;55.638;37.356;2024-01-15T01:47:37;96814.75;;;-8.31;78.84
58239;BME280;44037;55.638;37.356;2024-01-15T01:50:07;96807.38;;;-8.25;78.97
58239;BME280;44037;55.638;37.356;2024-01-15T01:52:35;96814.53;;;-8.27;78.75
58239;BME280;44037;55.638;37.356;2024-01-15T01:55:04;96808.75;;;-8.21;79.28
58239;BME280;44037;55.638;37.356;2024-01-15T01:57:33;96798.66;;;-8.15;79.54
58239;BME280;44037;55.638;37.356;2024-01-15T02:00:02;96797.50;;;-8.32;78.63
58239;BME280;44037;55.638;37.356;2024-01-15T02:02:31;96794.25;;;-8.14;79.16
58239;BME280;44037;55.638;37.356;2024-01-15T02:04:59;96794.25;;;-8.14;78.70
58239;BME280;44037;55.638;37.356;2024-01-15T02:07:28;96791.50;;;-8.22;78.52
58239;BME280;44037;55.638;37.356;2024-01-15T02:09:55;96798.09;;;-8.18;78.81
58239;BME280;44037;55.638;37.356;2024-01-15T02:12:23;96794.81;;;-8.10;78.78
58239;BME280;44037;55.638;37.356;2024-01-15T02:14:50;96792.88;;;-8.18;78.70
58239;BME280;44037;55.638;37.356;2024-01-15T02:17:18;96801.16;;;-7.93;79.75
58239;BME280;44037;55.638;37.356;2024-01-15T02:19:46;96789.66;;;-7.91;78.61
58239;BME280;44037;55.638;37.356;2024-01-15T02:22:13;96789.47;;;-8.09;78.52
58239;BME280;44037;55.638;37.356;2024-01-15T02:24:42;96793.88;;;-8.00;78.99
58239;BME280;44037;55.638;37.356;2024-01-15T02:27:09;96797.50;;;-7.81;79.57
58239;BME280;44037;55.638;37.356;2024-01-15T02:29:38;96790.47;;;-7.90;78.70
58239;BME280;44037;55.638;37.356;2024-01-15T02:32:06;96791.28;;;-7.80;78.36
58239;BME280;44037;55.638;37.356;2024-01-15T02:34:35;96785.81;;;-7.67;78.84
58239;BME280;44037;55.638;37.356;2024-01-15T02:37:03;96790.19;;;-7.78;78.39
58239;BME280;44037;55.638;37.356;2024-01-15T02:39:30;96792.38;;;-7.83;78.55
58239;BME280;44037;55.638;37.356;2024-01-15T02:41:59;96796.91;;;-7.75;78.96
58239;BME280;44037;55.638;37.356;2024-01-15T02:44:27;96792.13;;;-7.80;78.66
58239;BME280;44037;55.638;37.356;2024-01-15T02:46:54;96788.56;;;-7.69;79.25
58239;BME280;44037;55.638;37.356;2024-01-15T02:49:21;96783.09;;;-7.66;78.82
58239;BME280;44037;55.638;37.356;2024-01-15T02:51:49;96788.16;;;-7.74;78.89
58239;BME280;44037;55.638;37.356;2024-01-15T02:54:16;96786.53;;;-7.65;79.44
58239;BME280;44037;55.638;37.356;2024-01-15T02:56:44;96787.75;;;-7.59;79.12
58239;BME280;44037;55.638;37.356;2024-01-15T02:59:13;96796.69;;;-7.52;78.83
58239;BME280;44037;55.638;37.356;2024-01-15T03:01:40;96782.22;;;-7.37;79.31
58239;BME280;44037;55.638;37.356;2024-01-15T03:04:07;96782.28;;;-7.56;78.75
58239;BME280;44037;55.638;37.356;2024-01-15T03:06:35;96780.34;;;-7.64;79.11
58239;BME280;44037;55.638;37.356;2024-01-15T03:09:02;96780.06;;;-7.51;79.70
58239;BME280;44037;55.638;37.356;2024-01-15T03:11:30;96771.97;;;-7.48;79.43
58239;BME280;44037;55.638;37.356;2024-01-15T03:14:03;96779.25;;;-7.62;79.32
58239;BME280;44037;55.638;37.356;2024-01-15T03:16:32;96773.34;;;-7.64;79.42
58239;BME280;44037;55.638;37.356;2024-01-15T03:19:00;96773.59;;;-7.47;79.69
58239;BME280;44037;55.638;37.356;2024-01-15T03:21:28;96773.16;;;-7.23;79.98
58239;BME280;44037;55.638;37.356;2024-01-15T03:23:55;96768.50;;;-7.19;78.80
58239;BME280;44037;55.638;37.356;2024-01-15T03:26:22;96758.72;;;-7.17;78.72
58239;BME280;44037;55.638;37.356;2024-01-15T03:28:50;96767.50;;;-7.18;79.28
58239;BME280;44037;55.638;37.356;2024-01-15T03:31:17;96754.47;;;-7.18;78.96
58239;BME280;44037;55.638;37.356;2024-01-15T03:33:46;96755.56;;;-7.11;79.72
58239;BME280;44037;55.638;37.356;2024-01-15T03:36:13;96745.44;;;-7.34;78.83
58239;BME280;44037;55.638;37.356;2024-01-15T03:38:41;96747.50;;;-7.28;78.94
58239;BME280;44037;55.638;37.356;2024-01-15T03:41:09;96753.66;;;-7.29;79.97
58239;BME280;44037;55.638;37.356;2024-01-15T03:43:36;96739.97;;;-7.31;79.40
58239;BME280;44037;55.638;37.356;2024-01-15T03:46:04;96748.19;;;-7.25;79.27
58239;BME280;44037;55.638;37.356;2024-01-15T03:48:31;96740.38;;;-7.25;79.50
58239;BME280;44037;55.638;37.356;2024-01-15T03:51:00;96743.31;;;-7.01;79.95
58239;BME280;44037;55.638;37.356;2024-01-15T03:53:27;96744.56;;;-7.05;79.56
58239;BME280;44037;55.638;37.356;2024-01-15T03:55:55;96747.59;;;-7.09;79.48
58239;BME280;44037;55.638;37.356;2024-01-15T03:58:22;96745.13;;;-7.01;80.08
58239;BME280;44037;55.638;37.356;2024-01-15T04:00:50;96749.78;;;-7.05;80.14
58239;BME280;44037;55.638;37.356;2024-01-15T04:03:17;96741.00;;;-7.04;80.16
58239;BME280;44037;55.638;37.356;2024-01-15T04:05:44;96751.53;;;-6.96;80.79
58239;BME280;44037;55.638;37.356;2024-01-15T04:08:13;96736.59;;;-6.93;80.07
58239;BME280;44037;55.638;37.356;2024-01-15T04:10:40;96747.84;;;-6.93;79.96
58239;BME280;44037;55.638;37.356;2024-01-15T04:13:08;96748.66;;;-6.92;80.23
58239;BME280;44037;55.638;37.356;2024-01-15T04:15:35;96749.44;;;-6.82;80.39
58239;BME280;44037;55.638;37.356;2024-01-15T04:18:04;96734.06;;;-6.85;80.64
58239;BME280;44037;55.638;37.356;2024-01-15T04:20:31;96750.81;;;-6.78;80.19
58239;BME280;44037;55.638;37.356;2024-01-15T04:22:59;96744.59;;;-6.77;80.26
58239;BME280;44037;55.638;37.356;2024-01-15T04:25:28;96733.78;;;-6.82;80.09
58239;BME280;44037;55.638;37.356;2024-01-15T04:27:55;96746.44;;;-6.87;80.02
58239;BME280;44037;55.638;37.356;2024-01-15T04:30:23;96731.88;;;-6.90;80.40
58239;BME280;44037;55.638;37.356;2024-01-15T04:32:50;96736.31;;;-7.00;80.39
58239;BME280;44037;55.638;37.356;2024-01-15T04:35:18;96741.13;;;-6.96;80.77
58239;BME280;44037;55.638;37.356;2024-01-15T04:37:45;96730.78;;;-6.87;80.74
58239;BME280;44037;55.638;37.356;2024-01-15T04:40:13;96727.44;;;-6.80;81.00
58239;BME280;44037;55.638;37.356;2024-01-15T04:42:42;96729.94;;;-6.78;81.25
58239;BME280;44037;55.638;37.356;2024-01-15T04:45:11;96728.69;;;-6.74;81.11
58239;BME280;44037;55.638;37.356;2024-01-15T04:47:39;96725.81;;;-6.81;80.70
58239;BME280;44037;55.638;37.356;2024-01-15T04:50:07;96718.81;;;-6.80;80.86
58239;BME280;44037;55.638;37.356;2024-01-15T04:52:34;96716.69;;;-6.67;80.87
58239;BME280;44037;55.638;37.356;2024-01-15T04:55:02;96725.56;;;-6.87;81.15
58239;BME280;44037;55.638;37.356;2024-01-15T04:57:30;96725.94;;;-6.82;81.37
58239;BME280;44037;55.638;37.356;2024-01-15T04:59:59;96721.84;;;-6.85;80.92
58239;BME280;44037;55.638;37.356;2024-01-15T05:02:26;96729.59;;;-6.65;82.28
58239;BME280;44037;55.638;37.356;2024-01-15T05:04:54;96719.97;;;-6.65;81.30
58239;BME280;44037;55.638;37.356;2024-01-15T05:07:21;96720.44;;;-6.51;81.73
58239;BME280;44037;55.638;37.356;2024-01-15T05:09:49;96719.25;;;-6.57;81.23
58239;BME280;44037;55.638;37.356;2024-01-15T05:12:16;96729.56;;;-6.55;81.28
58239;BME280;44037;55.638;37.356;2024-01-15T05:14:43;96726.75;;;-6.44;81.18
58239;BME280;44037;55.638;37.356;2024-01-15T05:17:12;96725.88;;;-6.35;81.03
58239;BME280;44037;55.638;37.356;2024-01-15T05:19:39;96722.19;;;-6.14;81.41
58239;BME280;44037;55.638;37.356;2024-01-15T05:22:07;96723.06;;;-6.23;80.74
58239;BME280;44037;55.638;37.356;2024-01-15T05:24:34;96723.44;;;-6.18;81.13
58239;BME280;44037;55.638;37.356;2024-01-15T05:27:02;96719.69;;;-6.34;80.96
58239;BME280;44037;55.638;37.356;2024-01-15T05:29:29;96729.59;;;-6.09;81.36
58239;BME280;44037;55.638;37.356;2024-01-15T05:31:57;96717.19;;;-6.07;80.95
58239;BME280;44037;55.638;37.356;2024-01-15T05:34:26;96734.34;;;-6.05;80.78
58239;BME280;44037;55.638;37.356;2024-01-15T05:36:53;96726.34;;;-6.03;80.51
58239;BME280;44037;55.638;37.356;2024-01-15T05:39:21;96721.22;;;-6.13;80.52
58239;BME280;44037;55.638;37.356;2024-01-15T05:41:48;96726.50;;;-6.05;81.12
58239;BME280;44037;55.638;37.356;2024-01-15T05:44:15;96719.13;;;-6.09;80.35
58239;BME280;44037;55.638;37.356;2024-01-15T05:46:43;96723.66;;;-6.11;80.89
58239;BME280;44037;55.638;37.356;2024-01-15T05:49:10;96717.13;;;-5.98;81.27
58239;BME280;44037;55.638;37.356;2024-01-15T05:51:39;96721.22;;;-5.95;81.14
58239;BME280;44037;55.638;37.356;2024-01-15T05:54:06;96722.34;;;-5.98;80.85
58239;BME280;44037;55.638;37.356;2024-01-15T05:56:34;96731.59;;;-5.85;81.13
58239;BME280;44037;55.638;37.356;2024-01-15T05:59:01;96724.50;;;-5.93;80.32
58239;BME280;44037;55.638;37.356;2024-01-15T06:01:29;96728.38;;;-5.79;80.84
58239;BME280;44037;55.638;37.356;2024-01-15T06:03:57;96724.06;;;-5.88;80.76
58239;BME280;44037;55.638;37.356;2024-01-15T06:06:25;96722.78;;;-5.84;80.61
58239;BME280;44037;55.638;37.356;2024-01-15T06:08:54;96729.13;;;-5.69;80.72
58239;BME280;44037;55.638;37.356;2024-01-15T06:11:21;96736.53;;;-5.82;80.17
58239;BME280;44037;55.638;37.356;2024-01-15T06:13:48;96727.06;;;-5.83;80.52
58239;BME280;44037;55.638;37.356;2024-01-15T06:16:16;96726.53;;;-5.69;80.63
58239;BME280;44037;55.638;37.356;2024-01-15T06:18:46;96732.88;;;-5.71;80.44
58239;BME280;44037;55.638;37.356;2024-01-15T06:21:13;96729.44;;;-5.72;80.53
58239;BME280;44037;55.638;37.356;2024-01-15T06:23:41;96727.25;;;-5.58;80.94
58239;BME280;44037;55.638;37.356;2024-01-15T06:26:11;96724.25;;;-5.45;80.88
58239;BME280;44037;55.638;37.356;2024-01-15T06:28:39;96727.84;;;-5.47;80.44
58239;BME280;44037;55.638;37.356;2024-01-15T06:31:06;96736.16;;;-5.51;80.42
58239;BME280;44037;55.638;37.356;2024-01-15T06:33:33;96725.53;;;-5.50;79.64
58239;BME280;44037;55.638;37.356;2024-01-15T06:36:01;96728.09;;;-5.40;80.29
58239;BME280;44037;55.638;37.356;2024-01-15T06:38:28;96724.22;;;-5.27;80.35
58239;BME280;44037;55.638;37.356;2024-01-15T06:40:56;96730.16;;;-5.25;79.87
58239;BME280;44037;55.638;37.356;2024-01-15T06:43:24;96726.59;;;-5.16;79.90
58239;BME280;44037;55.638;37.356;2024-01-15T06:45:52;96731.47;;;-5.21;80.07
58239;BME280;44037;55.638;37.356;2024-01-15T06:48:19;96737.06;;;-5.16;80.25
58239;BME280;44037;55.638;37.356;2024-01-15T06:50:47;96733.16;;;-5.12;80.08
58239;BME280;44037;55.638;37.356;2024-01-15T06:53:14;96733.25;;;-5.04;80.11
58239;BME280;44037;55.638;37.356;2024-01-15T06:55:41;96732.19;;;-5.11;79.75
58239;BME280;44037;55.638;37.356;2024-01-15T06:58:09;96738.00;;;-4.99;79.82
58239;BME280;44037;55.638;37.356;2024-01-15T07:00:37;96737.97;;;-5.07;79.54
58239;BME280;44037;55.638;37.356;2024-01-15T07:03:06;96742.41;;;-5.00;80.07
58239;BME280;44037;55.638;37.356;2024-01-15T07:05:34;96732.34;;;-4.86;80.04
58239;BME280;44037;55.638;37.356;2024-01-15T07:08:03;96731.66;;;-4.88;79.51
58239;BME280;44037;55.638;37.356;2024-01-15T07:10:31;96741.88;;;-4.77;79.70
58239;BME280;44037;55.638;37.356;2024-01-15T07:12:58;96731.94;;;-4.65;79.35
58239;BME280;44037;55.638;37.356;2024-01-15T07:15:25;96733.75;;;-4.66;79.75
58239;BME280;44037;55.638;37.356;2024-01-15T07:17:54;96742.59;;;-4.67;79.08
58239;BME280;44037;55.638;37.356;2024-01-15T07:20:22;96732.53;;;-4.53;79.51
58239;BME280;44037;55.638;37.356;2024-01-15T07:22:49;96736.41;;;-4.57;78.44
58239;BME280;44037;55.638;37.356;2024-01-15T07:25:17;96727.56;;;-4.56;78.81
58239;BME280;44037;55.638;37.356;2024-01-15T07:27:44;96749.03;;;-4.53;78.71
58239;BME280;44037;55.638;37.356;2024-01-15T07:30:13;96728.09;;;-4.53;79.25
58239;BME280;44037;55.638;37.356;2024-01-15T07:32:41;96735.19;;;-4.37;79.65
58239;BME280;44037;55.638;37.356;2024-01-15T07:35:09;96739.09;;;-4.49;78.85
58239;BME280;44037;55.638;37.356;2024-01-15T07:37:37;96736.38;;;-4.31;78.30
58239;BME280;44037;55.638;37.356;2024-01-15T07:40:05;96737.22;;;-4.22;78.00
58239;BME280;44037;55.638;37.356;2024-01-15T07:42:34;96738.53;;;-4.18;78.33
58239;BME280;44037;55.638;37.356;2024-01-15T07:45:01;96736.56;;;-4.24;77.84
58239;BME280;44037;55.638;37.356;2024-01-15T07:47:31;96735.91;;;-4.18;77.65
58239;BME280;44037;55.638;37.356;2024-01-15T07:49:58;96736.44;;;-4.15;77.60
58239;BME280;44037;55.638;37.356;2024-01-15T07:52:27;96727.28;;;-4.02;78.30
58239;BME280;44037;55.638;37.356;2024-01-15T07:54:55;96724.69;;;-3.94;77.83
58239;BME280;44037;55.638;37.356;2024-01-15T07:57:22;96735.50;;;-3.80;78.70
58239;BME280;44037;55.638;37.356;2024-01-15T07:59:49;96728.13;;;-3.93;77.70
58239;BME280;44037;55.638;37.356;2024-01-15T08:02:17;96739.06;;;-3.98;77.60
58239;BME280;44037;55.638;37.356;2024-01-15T08:04:45;96731.22;;;-3.98;78.37
58239;BME280;44037;55.638;37.356;2024-01-15T08:07:12;96733.22;;;-3.84;78.20
58239;BME280;44037;55.638;37.356;2024-01-15T08:09:41;96736.66;;;-3.75;77.97
58239;BME280;44037;55.638;37.356;2024-01-15T08:12:08;96735.69;;;-3.82;78.03
58239;BME280;44037;55.638;37.356;2024-01-15T08:14:36;96734.84;;;-3.99;77.64
58239;BME280;44037;55.638;37.356;2024-01-15T08:17:03;96739.06;;;-4.15;78.09
58239;BME280;44037;55.638;37.356;2024-01-15T08:19:31;96736.97;;;-3.94;77.93
58239;BME280;44037;55.638;37.356;2024-01-15T08:21:58;96733.88;;;-3.82;77.95
58239;BME280;44037;55.638;37.356;2024-01-15T08:24:26;96738.97;;;-3.72;77.33
58239;BME280;44037;55.638;37.356;2024-01-15T08:26:55;96747.53;;;-3.37;77.07
58239;BME280;44037;55.638;37.356;2024-01-15T08:29:23;96737.19;;;-3.13;76.31
58239;BME280;44037;55.638;37.356;2024-01-15T08:31:51;96739.31;;;-3.25;76.05
58239;BME280;44037;55.638;37.356;2024-01-15T08:34:18;96743.25;;;-3.21;76.00
58239;BME280;44037;55.638;37.356;2024-01-15T08:36:45;96744.91;;;-3.45;75.83
58239;BME280;44037;55.638;37.356;2024-01-15T08:39:13;96748.81;;;-3.33;76.03
58239;BME280;44037;55.638;37.356;2024-01-15T08:41:40;96745.53;;;-3.43;76.16
58239;BME280;44037;55.638;37.356;2024-01-15T08:44:09;96741.59;;;-3.22;76.66
58239;BME280;44037;55.638;37.356;2024-01-15T08:46:36;96735.00;;;-2.93;77.27
58239;BME280;44037;55.638;37.356;2024-01-15T08:49:04;96740.13;;;-3.17;75.93
58239;BME280;44037;55.638;37.356;2024-01-15T08:51:31;96737.50;;;-3.08;75.58
58239;BME280;44037;55.638;37.356;2024-01-15T08:53:59;96744.88;;;-3.28;75.33
58239;BME280;44037;55.638;37.356;2024-01-15T08:56:27;96735.69;;;-3.49;75.89
58239;BME280;44037;55.638;37.356;2024-01-15T08:58:54;96742.91;;;-3.43;76.64
58239;BME280;44037;55.638;37.356;2024-01-15T09:01:23;96747.53;;;-3.37;76.44
58239;BME280;44037;55.638;37.356;2024-01-15T09:03:50;96738.66;;;-3.19;76.68
58239;BME280;44037;55.638;37.356;2024-01-15T09:06:18;96746.69;;;-3.29;76.27
58239;BME280;44037;55.638;37.356;2024-01-15T09:08:46;96737.00;;;-2.95;76.89
58239;BME280;44037;55.638;37.356;2024-01-15T09:11:14;96737.94;;;-2.80;76.36
58239;BME280;44037;55.638;37.356;2024-01-15T09:13:41;96742.41;;;-2.97;75.40
58239;BME280;44037;55.638;37.356;2024-01-15T09:16:08;96737.31;;;-2.99;75.28
58239;BME280;44037;55.638;37.356;2024-01-15T09:18:37;96744.69;;;-2.94;75.70
58239;BME280;44037;55.638;37.356;2024-01-15T09:21:05;96736.66;;;-2.84;75.50
58239;BME280;44037;55.638;37.356;2024-01-15T09:23:32;96730.34;;;-2.67;75.50
58239;BME280;44037;55.638;37.356;2024-01-15T09:25:59;96730.78;;;-2.46;75.46
58239;BME280;44037;55.638;37.356;2024-01-15T09:28:27;96724.78;;;-2.63;75.26
58239;BME280;44037;55.638;37.356;2024-01-15T09:30:55;96739.88;;;-2.66;74.90
58239;BME280;44037;55.638;37.356;2024-01-15T09:33:22;96732.03;;;-2.74;75.10
58239;BME280;44037;55.638;37.356;2024-01-15T09:35:51;96733.59;;;-2.56;75.73
58239;BME280;44037;55.638;37.356;2024-01-15T09:38:20;96739.59;;;-2.79;74.95
58239;BME280;44037;55.638;37.356;2024-01-15T09:40:47;96734.78;;;-2.67;75.77
58239;BME280;44037;55.638;37.356;2024-01-15T09:43:15;96745.63;;;-2.70;74.93
58239;BME280;44037;55.638;37.356;2024-01-15T09:45:44;96734.00;;;-2.76;74.95
58239;BME280;44037;55.638;37.356;2024-01-15T09:48:11;96734.13;;;-2.61;75.69
58239;BME280;44037;55.638;37.356;2024-01-15T09:50:39;96735.59;;;-2.58;76.59
58239;BME280;44037;55.638;37.356;2024-01-15T09:53:08;96734.03;;;-2.84;75.48
58239;BME280;44037;55.638;37.356;2024-01-15T09:55:36;96738.88;;;-2.56;75.84
58239;BME280;44037;55.638;37.356;2024-01-15T09:58:04;96737.22;;;-2.57;75.28
58239;BME280;44037;55.638;37.356;2024-01-15T10:00:33;96741.00;;;-2.60;75.18
58239;BME280;44037;55.638;37.356;2024-01-15T10:03:03;96745.47;;;-2.77;75.32
58239;BME280;44037;55.638;37.356;2024-01-15T10:05:30;96745.47;;;-2.77;75.01
58239;BME280;44037;55.638;37.356;2024-01-15T10:08:00;96750.38;;;-2.66;75.52
58239;BME280;44037;55.638;37.356;2024-01-15T10:10:29;96738.09;;;-2.73;75.30
58239;BME280;44037;55.638;37.356;2024-01-15T10:12:58;96745.50;;;-2.85;75.55
58239;BME280;44037;55.638;37.356;2024-01-15T10:15:26;96740.56;;;-2.80;75.84
58239;BME280;44037;55.638;37.356;2024-01-15T10:17:54;96738.47;;;-3.01;75.93
58239;BME280;44037;55.638;37.356;2024-01-15T10:20:22;96739.94;;;-2.90;75.93
58239;BME280;44037;55.638;37.356;2024-01-15T10:22:50;96745.47;;;-2.77;76.01
58239;BME280;44037;55.638;37.356;2024-01-15T10:25:17;96731.19;;;-2.66;76.00
58239;BME280;44037;55.638;37.356;2024-01-15T10:28:00;96745.16;;;-2.74;76.19
58239;BME280;44037;55.638;37.356;2024-01-15T10:30:28;96742.03;;;-2.69;76.28
58239;BME280;44037;55.638;37.356;2024-01-15T10:32:59;96737.28;;;-2.74;76.19
58239;BME280;44037;55.638;37.356;2024-01-15T10:35:29;96742.53;;;-2.82;76.48
58239;BME280;44037;55.638;37.356;2024-01-15T10:37:56;96747.78;;;-2.82;76.74
58239;BME280;44037;55.638;37.356;2024-01-15T10:40:24;96742.47;;;-2.57;76.87
58239;BME280;44037;55.638;37.356;2024-01-15T10:42:52;96734.59;;;-2.57;76.32
58239;BME280;44037;55.638;37.356;2024-01-15T10:45:21;96733.81;;;-2.66;76.46
58239;BME280;44037;55.638;37.356;2024-01-15T10:47:49;96745.47;;;-2.77;75.94
58239;BME280;44037;55.638;37.356;2024-01-15T10:50:16;96735.13;;;-2.70;76.12
58239;BME280;44037;55.638;37.356;2024-01-15T10:52:44;96732.66;;;-2.72;77.08
58239;BME280;44037;55.638;37.356;2024-01-15T10:55:11;96737.88;;;-2.55;76.61
58239;BME280;44037;55.638;37.356;2024-01-15T10:57:39;96741.22;;;-2.70;75.99
58239;BME280;44037;55.638;37.356;2024-01-15T11:00:08;96733.69;;;-2.81;76.28
58239;BME280;44037;55.638;37.356;2024-01-15T11:02:36;96726.06;;;-2.59;76.69
58239;BME280;44037;55.638;37.356;2024-01-15T11:05:05;96732.50;;;-2.62;76.04
58239;BME280;44037;55.638;37.356;2024-01-15T11:07:32;96730.66;;;-2.53;76.28
58239;BME280;44037;55.638;37.356;2024-01-15T11:10:03;96734.94;;;-2.60;75.82
58239;BME280;44037;55.638;37.356;2024-01-15T11:12:31;96729.66;;;-2.52;75.85
58239;BME280;44037;55.638;37.356;2024-01-15T11:15:02;96720.47;;;-2.56;76.00
58239;BME280;44037;55.638;37.356;2024-01-15T11:17:59;96724.81;;;-2.80;75.53
58239;BME280;44037;55.638;37.356;2024-01-15T11:20:27;96733.38;;;-2.94;76.20
58239;BME280;44037;55.638;37.356;2024-01-15T11:22:55;96728.78;;;-2.84;76.32
58239;BME280;44037;55.638;37.356;2024-01-15T11:25:34;96727.41;;;-2.72;76.72
58239;BME280;44037;55.638;37.356;2024-01-15T11:28:02;96727.72;;;-2.58;76.56
58239;BME280;44037;55.638;37.356;2024-01-15T11:30:30;96726.38;;;-2.62;76.17
58239;BME280;44037;55.638;37.356;2024-01-15T11:33:04;96723.00;;;-2.79;76.17
58239;BME280;44037;55.638;37.356;2024-01-15T11:35:48;96723.53;;;-2.84;76.62
58239;BME280;44037;55.638;37.356;2024-01-15T11:38:26;96721.28;;;-3.20;76.26
58239;BME280;44037;55.638;37.356;2024-01-15T11:40:55;96722.91;;;-3.19;76.82
58239;BME280;44037;55.638;37.356;2024-01-15T11:43:22;96724.56;;;-3.10;76.86
58239;BME280;44037;55.638;37.356;2024-01-15T11:45:52;96719.94;;;-3.00;77.44
58239;BME280;44037;55.638;37.356;2024-01-15T11:48:21;96734.97;;;-2.77;78.07
58239;BME280;44037;55.638;37.356;2024-01-15T11:50:50;96724.81;;;-2.80;77.28
58239;BME280;44037;55.638;37.356;2024-01-15T11:53:27;96738.94;;;-2.81;77.25
58239;BME280;44037;55.638;37.356;2024-01-15T11:55:58;96729.44;;;-2.90;76.36
58239;BME280;44037;55.638;37.356;2024-01-15T11:58:25;96730.75;;;-2.94;76.57
58239;BME280;44037;55.638;37.356;2024-01-15T12:00:53;96729.47;;;-3.07;76.95
58239;BME280;44037;55.638;37.356;2024-01-15T12:03:23;96726.81;;;-2.99;77.34
58239;BME280;44037;55.638;37.356;2024-01-15T12:05:52;96731.09;;;-2.89;77.11
58239;BME280;44037;55.638;37.356;2024-01-15T12:08:23;96719.88;;;-2.83;77.17
58239;BME280;44037;55.638;37.356;2024-01-15T12:10:51;96730.25;;;-2.81;77.33
58239;BME280;44037;55.638;37.356;2024-01-15T12:13:19;96723.53;;;-2.84;76.91
58239;BME280;44037;55.638;37.356;2024-01-15T12:15:47;96723.53;;;-2.84;76.73
58239;BME280;44037;55.638;37.356;2024-01-15T12:18:16;96716.63;;;-2.85;77.38
58239;BME280;44037;55.638;37.356;2024-01-15T12:20:45;96724.19;;;-2.99;76.69
58239;BME280;44037;55.638;37.356;2024-01-15T12:23:14;96729.13;;;-2.95;76.78
58239;BME280;44037;55.638;37.356;2024-01-15T12:25:42;96726.47;;;-2.87;77.34
58239;BME280;44037;55.638;37.356;2024-01-15T12:28:10;96723.66;;;-2.86;77.63
58239;BME280;44037;55.638;37.356;2024-01-15T12:30:38;96724.16;;;-2.82;77.32
58239;BME280;44037;55.638;37.356;2024-01-15T12:33:08;96720.72;;;-2.91;77.34
58239;BME280;44037;55.638;37.356;2024-01-15T12:35:36;96729.09;;;-2.79;78.06
58239;BME280;44037;55.638;37.356;2024-01-15T12:38:05;96726.16;;;-2.84;77.36
58239;BME280;44037;55.638;37.356;2024-01-15T12:40:33;96721.38;;;-2.89;77.08
58239;BME280;44037;55.638;37.356;2024-01-15T12:43:01;96723.84;;;-3.04;76.96
58239;BME280;44037;55.638;37.356;2024-01-15T12:45:29;96723.03;;;-2.96;77.72
58239;BME280;44037;55.638;37.356;2024-01-15T12:47:57;96725.00;;;-2.90;78.11
58239;BME280;44037;55.638;37.356;2024-01-15T12:50:26;96724.84;;;-3.13;77.51
58239;BME280;44037;55.638;37.356;2024-01-15T12:52:54;96724.84;;;-3.13;77.85
58239;BME280;44037;55.638;37.356;2024-01-15T12:55:23;96719.63;;;-3.05;77.40